sensor_id;sensor_type;location;lat;lon;timestamp;P1;durP1;ratioP1;P2;durP2;ratioP2
64353;SDS011;50681;53.334;-6.536;2022-08-21T00:00:14;19.90;;;3.45;;
64353;SDS011;50681;53.334;-6.536;2022-08-21T00:02:50;23.48;;;3.65;;
64353;SDS011;50681;53.334;-6.536;2022-08-21T00:05:18;12.53;;;2.87;;
64353;SDS011;50681;53.334;-6.536;2022-08-21T00:07:44;22.50;;;3.30;;
64353;SDS011;50681;53.334;-6.536;2022-08-21T00:10:10;20.05;;;3.47;;
64353;SDS011;50681;53.334;-6.536;2022-08-21T00:12:36;14.32;;;3.42;;
64353;SDS011;50681;53.334;-6.536;2022-08-21T00:15:02;19.65;;;3.15;;
64353;SDS011;50681;53.334;-6.536;2022-08-21T00:17:30;17.15;;;3.10;;
64353;SDS011;50681;53.334;-6.536;2022-08-21T00:19:55;20.47;;;3.83;;
64353;SDS011;50681;53.334;-6.536;2022-08-21T00:22:20;18.43;;;3.07;;
64353;SDS011;50681;53.334;-6.536;2022-08-21T00:24:46;16.73;;;3.10;;
64353;SDS011;50681;53.334;-6.536;2022-08-21T00:27:11;29.17;;;3.33;;
64353;SDS011;50681;53.334;-6.536;2022-08-21T00:29:37;10.80;;;3.13;;
64353;SDS011;50681;53.334;-6.536;2022-08-21T00:32:02;13.90;;;2.57;;
64353;SDS011;50681;53.334;-6.536;2022-08-21T00:34:28;21.43;;;3.37;;
64353;SDS011;50681;53.334;-6.536;2022-08-21T00:36:53;12.07;;;2.97;;
64353;SDS011;50681;53.334;-6.536;2022-08-21T00:39:18;18.30;;;2.80;;
64353;SDS011;50681;53.334;-6.536;2022-08-21T00:41:44;21.23;;;3.20;;
64353;SDS011;50681;53.334;-6.536;2022-08-21T00:44:11;11.60;;;3.17;;
64353;SDS011;50681;53.334;-6.536;2022-08-21T00:46:39;18.83;;;3.15;;
64353;SDS011;50681;53.334;-6.536;2022-08-21T00:49:06;21.90;;;3.50;;
64353;SDS011;50681;53.334;-6.536;2022-08-21T00:51:38;17.98;;;3.30;;
64353;SDS011;50681;53.334;-6.536;2022-08-21T00:54:12;22.42;;;3.50;;
64353;SDS011;50681;53.334;-6.536;2022-08-21T00:56:39;19.98;;;3.00;;
64353;SDS011;50681;53.334;-6.536;2022-08-21T00:59:06;13.55;;;2.70;;
64353;SDS011;50681;53.334;-6.536;2022-08-21T01:01:31;26.20;;;3.50;;
64353;SDS011;50681;53.334;-6.536;2022-08-21T01:03:58;19.38;;;2.92;;
64353;SDS011;50681;53.334;-6.536;2022-08-21T01:06:23;24.53;;;4.13;;
64353;SDS011;50681;53.334;-6.536;2022-08-21T01:08:49;20.40;;;3.23;;
64353;SDS011;50681;53.334;-6.536;2022-08-21T01:11:15;15.35;;;2.97;;
64353;SDS011;50681;53.334;-6.536;2022-08-21T01:13:40;15.17;;;3.10;;
64353;SDS011;50681;53.334;-6.536;2022-08-21T01:16:10;18.30;;;3.15;;
64353;SDS011;50681;53.334;-6.536;2022-08-21T01:18:37;20.20;;;3.47;;
64353;SDS011;50681;53.334;-6.536;2022-08-21T01:21:10;16.77;;;3.53;;
64353;SDS011;50681;53.334;-6.536;2022-08-21T01:23:44;17.83;;;3.00;;
64353;SDS011;50681;53.334;-6.536;2022-08-21T01:26:12;19.27;;;3.83;;
64353;SDS011;50681;53.334;-6.536;2022-08-21T01:28:42;21.35;;;3.65;;
64353;SDS011;50681;53.334;-6.536;2022-08-21T01:31:11;16.13;;;3.22;;
64353;SDS011;50681;53.334;-6.536;2022-08-21T01:33:38;23.55;;;3.88;;
64353;SDS011;50681;53.334;-6.536;2022-08-21T01:36:04;16.63;;;3.03;;
64353;SDS011;50681;53.334;-6.536;2022-08-21T01:38:30;23.88;;;3.47;;
64353;SDS011;50681;53.334;-6.536;2022-08-21T01:40:56;11.00;;;2.95;;
64353;SDS011;50681;53.334;-6.536;2022-08-21T01:43:21;24.73;;;3.50;;
64353;SDS011;50681;53.334;-6.536;2022-08-21T01:45:47;22.90;;;3.37;;
64353;SDS011;50681;53.334;-6.536;2022-08-21T01:48:12;28.90;;;3.70;;
64353;SDS011;50681;53.334;-6.536;2022-08-21T01:50:37;17.70;;;3.53;;
64353;SDS011;50681;53.334;-6.536;2022-08-21T01:53:03;27.60;;;3.37;;
64353;SDS011;50681;53.334;-6.536;2022-08-21T01:55:29;17.98;;;3.83;;
64353;SDS011;50681;53.334;-6.536;2022-08-21T01:57:54;22.57;;;3.90;;
64353;SDS011;50681;53.334;-6.536;2022-08-21T02:00:21;19.08;;;3.92;;
64353;SDS011;50681;53.334;-6.536;2022-08-21T02:02:48;23.02;;;3.15;;
64353;SDS011;50681;53.334;-6.536;2022-08-21T02:05:14;14.98;;;2.78;;
64353;SDS011;50681;53.334;-6.536;2022-08-21T02:07:43;21.70;;;3.10;;
64353;SDS011;50681;53.334;-6.536;2022-08-21T02:10:13;16.35;;;3.33;;
64353;SDS011;50681;53.334;-6.536;2022-08-21T02:12:40;28.90;;;3.17;;
64353;SDS011;50681;53.334;-6.536;2022-08-21T02:15:06;11.37;;;3.10;;
64353;SDS011;50681;53.334;-6.536;2022-08-21T02:20:20;17.08;;;2.90;;
64353;SDS011;50681;53.334;-6.536;2022-08-21T02:22:48;23.73;;;3.40;;
64353;SDS011;50681;53.334;-6.536;2022-08-21T02:25:14;27.45;;;3.63;;
64353;SDS011;50681;53.334;-6.536;2022-08-21T02:27:41;27.95;;;3.30;;
64353;SDS011;50681;53.334;-6.536;2022-08-21T02:30:10;15.98;;;3.15;;
64353;SDS011;50681;53.334;-6.536;2022-08-21T02:32:38;21.05;;;3.70;;
64353;SDS011;50681;53.334;-6.536;2022-08-21T02:35:04;26.47;;;3.53;;
64353;SDS011;50681;53.334;-6.536;2022-08-21T02:37:30;17.20;;;3.45;;
64353;SDS011;50681;53.334;-6.536;2022-08-21T02:39:56;22.87;;;3.70;;
64353;SDS011;50681;53.334;-6.536;2022-08-21T02:42:21;20.73;;;3.50;;
64353;SDS011;50681;53.334;-6.536;2022-08-21T02:44:47;24.77;;;3.60;;
64353;SDS011;50681;53.334;-6.536;2022-08-21T02:47:14;21.60;;;3.00;;
64353;SDS011;50681;53.334;-6.536;2022-08-21T02:49:39;24.80;;;3.70;;
64353;SDS011;50681;53.334;-6.536;2022-08-21T02:52:05;20.77;;;3.57;;
64353;SDS011;50681;53.334;-6.536;2022-08-21T02:54:30;20.23;;;3.87;;
64353;SDS011;50681;53.334;-6.536;2022-08-21T02:56:56;19.77;;;3.80;;
64353;SDS011;50681;53.334;-6.536;2022-08-21T02:59:22;20.60;;;3.63;;
64353;SDS011;50681;53.334;-6.536;2022-08-21T03:01:47;21.97;;;3.17;;
64353;SDS011;50681;53.334;-6.536;2022-08-21T03:04:13;16.93;;;3.97;;
64353;SDS011;50681;53.334;-6.536;2022-08-21T03:06:40;24.35;;;3.13;;
64353;SDS011;50681;53.334;-6.536;2022-08-21T03:09:05;21.03;;;3.03;;
64353;SDS011;50681;53.334;-6.536;2022-08-21T03:11:31;17.73;;;3.13;;
64353;SDS011;50681;53.334;-6.536;2022-08-21T03:13:56;24.33;;;4.07;;
64353;SDS011;50681;53.334;-6.536;2022-08-21T03:16:22;17.40;;;2.93;;
64353;SDS011;50681;53.334;-6.536;2022-08-21T03:18:47;22.30;;;3.60;;
64353;SDS011;50681;53.334;-6.536;2022-08-21T03:21:12;35.07;;;3.63;;
64353;SDS011;50681;53.334;-6.536;2022-08-21T03:23:38;28.83;;;3.67;;
64353;SDS011;50681;53.334;-6.536;2022-08-21T03:28:31;28.33;;;3.30;;
64353;SDS011;50681;53.334;-6.536;2022-08-21T03:30:57;28.83;;;3.67;;
64353;SDS011;50681;53.334;-6.536;2022-08-21T03:33:22;21.50;;;3.87;;
64353;SDS011;50681;53.334;-6.536;2022-08-21T03:35:55;19.45;;;3.40;;
64353;SDS011;50681;53.334;-6.536;2022-08-21T03:38:26;23.75;;;3.80;;
64353;SDS011;50681;53.334;-6.536;2022-08-21T03:40:53;27.88;;;4.13;;
64353;SDS011;50681;53.334;-6.536;2022-08-21T03:43:19;18.90;;;3.47;;
64353;SDS011;50681;53.334;-6.536;2022-08-21T03:45:44;22.70;;;3.53;;
64353;SDS011;50681;53.334;-6.536;2022-08-21T03:48:10;30.30;;;3.37;;
64353;SDS011;50681;53.334;-6.536;2022-08-21T03:50:37;22.48;;;3.38;;
64353;SDS011;50681;53.334;-6.536;2022-08-21T03:53:05;28.35;;;3.70;;
64353;SDS011;50681;53.334;-6.536;2022-08-21T03:55:32;16.50;;;3.10;;
64353;SDS011;50681;53.334;-6.536;2022-08-21T03:57:57;21.33;;;3.50;;
64353;SDS011;50681;53.334;-6.536;2022-08-21T04:00:23;15.33;;;3.03;;
64353;SDS011;50681;53.334;-6.536;2022-08-21T04:02:49;24.20;;;3.58;;
64353;SDS011;50681;53.334;-6.536;2022-08-21T04:05:15;18.48;;;2.92;;
64353;SDS011;50681;53.334;-6.536;2022-08-21T04:07:58;25.33;;;3.10;;
64353;SDS011;50681;53.334;-6.536;2022-08-21T04:10:26;33.88;;;3.63;;
64353;SDS011;50681;53.334;-6.536;2022-08-21T04:12:53;14.25;;;3.28;;
64353;SDS011;50681;53.334;-6.536;2022-08-21T04:15:20;23.20;;;2.65;;
64353;SDS011;50681;53.334;-6.536;2022-08-21T04:20:13;20.02;;;3.20;;
64353;SDS011;50681;53.334;-6.536;2022-08-21T04:22:39;32.80;;;3.60;;
64353;SDS011;50681;53.334;-6.536;2022-08-21T04:25:05;25.73;;;3.73;;
64353;SDS011;50681;53.334;-6.536;2022-08-21T04:27:32;21.90;;;3.88;;
64353;SDS011;50681;53.334;-6.536;2022-08-21T04:32:25;16.67;;;3.72;;
64353;SDS011;50681;53.334;-6.536;2022-08-21T04:34:50;18.17;;;3.30;;
64353;SDS011;50681;53.334;-6.536;2022-08-21T04:37:22;24.45;;;2.63;;
64353;SDS011;50681;53.334;-6.536;2022-08-21T04:39:47;34.07;;;3.33;;
64353;SDS011;50681;53.334;-6.536;2022-08-21T04:42:13;19.33;;;3.40;;
64353;SDS011;50681;53.334;-6.536;2022-08-21T04:44:39;16.98;;;3.35;;
64353;SDS011;50681;53.334;-6.536;2022-08-21T04:47:05;33.13;;;3.97;;
64353;SDS011;50681;53.334;-6.536;2022-08-21T04:49:30;24.43;;;3.33;;
64353;SDS011;50681;53.334;-6.536;2022-08-21T04:51:56;23.40;;;3.30;;
64353;SDS011;50681;53.334;-6.536;2022-08-21T04:54:21;29.80;;;2.93;;
64353;SDS011;50681;53.334;-6.536;2022-08-21T04:56:54;19.92;;;3.03;;
64353;SDS011;50681;53.334;-6.536;2022-08-21T04:59:26;21.70;;;3.25;;
64353;SDS011;50681;53.334;-6.536;2022-08-21T05:01:55;19.85;;;3.28;;
64353;SDS011;50681;53.334;-6.536;2022-08-21T05:04:21;23.92;;;4.07;;
64353;SDS011;50681;53.334;-6.536;2022-08-21T05:06:50;16.38;;;2.78;;
64353;SDS011;50681;53.334;-6.536;2022-08-21T05:09:19;23.02;;;3.65;;
64353;SDS011;50681;53.334;-6.536;2022-08-21T05:11:46;23.92;;;3.42;;
64353;SDS011;50681;53.334;-6.536;2022-08-21T05:14:13;25.10;;;3.28;;
64353;SDS011;50681;53.334;-6.536;2022-08-21T05:16:39;25.25;;;3.88;;
64353;SDS011;50681;53.334;-6.536;2022-08-21T05:19:07;25.13;;;3.60;;
64353;SDS011;50681;53.334;-6.536;2022-08-21T05:21:34;21.95;;;3.70;;
64353;SDS011;50681;53.334;-6.536;2022-08-21T05:24:01;31.92;;;3.72;;
64353;SDS011;50681;53.334;-6.536;2022-08-21T05:26:27;17.85;;;3.80;;
64353;SDS011;50681;53.334;-6.536;2022-08-21T05:28:52;22.67;;;3.30;;
64353;SDS011;50681;53.334;-6.536;2022-08-21T05:31:18;27.27;;;3.50;;
64353;SDS011;50681;53.334;-6.536;2022-08-21T05:33:43;26.80;;;3.13;;
64353;SDS011;50681;53.334;-6.536;2022-08-21T05:36:09;28.03;;;3.30;;
64353;SDS011;50681;53.334;-6.536;2022-08-21T05:38:34;25.03;;;3.53;;
64353;SDS011;50681;53.334;-6.536;2022-08-21T05:40:59;30.80;;;3.17;;
64353;SDS011;50681;53.334;-6.536;2022-08-21T05:43:25;27.03;;;3.33;;
64353;SDS011;50681;53.334;-6.536;2022-08-21T05:45:50;23.03;;;3.67;;
64353;SDS011;50681;53.334;-6.536;2022-08-21T05:48:17;23.93;;;3.77;;
64353;SDS011;50681;53.334;-6.536;2022-08-21T05:50:47;18.15;;;3.72;;
64353;SDS011;50681;53.334;-6.536;2022-08-21T05:53:15;26.67;;;3.80;;
64353;SDS011;50681;53.334;-6.536;2022-08-21T05:55:43;29.35;;;4.00;;
64353;SDS011;50681;53.334;-6.536;2022-08-21T05:58:09;22.80;;;3.10;;
64353;SDS011;50681;53.334;-6.536;2022-08-21T06:00:35;20.55;;;3.08;;
64353;SDS011;50681;53.334;-6.536;2022-08-21T06:03:01;18.57;;;4.73;;
64353;SDS011;50681;53.334;-6.536;2022-08-21T06:05:29;27.93;;;3.63;;
64353;SDS011;50681;53.334;-6.536;2022-08-21T06:07:55;26.80;;;4.28;;
64353;SDS011;50681;53.334;-6.536;2022-08-21T06:10:20;17.77;;;2.90;;
64353;SDS011;50681;53.334;-6.536;2022-08-21T06:12:46;29.33;;;3.25;;
64353;SDS011;50681;53.334;-6.536;2022-08-21T06:15:12;18.83;;;3.43;;
64353;SDS011;50681;53.334;-6.536;2022-08-21T06:17:37;13.77;;;2.40;;
64353;SDS011;50681;53.334;-6.536;2022-08-21T06:20:03;25.30;;;3.17;;
64353;SDS011;50681;53.334;-6.536;2022-08-21T06:22:29;33.88;;;3.50;;
64353;SDS011;50681;53.334;-6.536;2022-08-21T06:24:54;21.20;;;3.03;;
64353;SDS011;50681;53.334;-6.536;2022-08-21T06:27:20;15.90;;;2.73;;
64353;SDS011;50681;53.334;-6.536;2022-08-21T06:29:45;22.53;;;3.67;;
64353;SDS011;50681;53.334;-6.536;2022-08-21T06:32:11;20.17;;;3.70;;
64353;SDS011;50681;53.334;-6.536;2022-08-21T06:34:38;19.73;;;2.80;;
64353;SDS011;50681;53.334;-6.536;2022-08-21T06:37:04;21.50;;;3.15;;
64353;SDS011;50681;53.334;-6.536;2022-08-21T06:39:31;17.55;;;3.30;;
64353;SDS011;50681;53.334;-6.536;2022-08-21T06:41:57;21.58;;;3.97;;
64353;SDS011;50681;53.334;-6.536;2022-08-21T06:44:23;31.67;;;3.93;;
64353;SDS011;50681;53.334;-6.536;2022-08-21T06:46:48;22.17;;;3.53;;
64353;SDS011;50681;53.334;-6.536;2022-08-21T06:49:13;20.07;;;2.73;;
64353;SDS011;50681;53.334;-6.536;2022-08-21T06:51:39;12.90;;;2.23;;
64353;SDS011;50681;53.334;-6.536;2022-08-21T06:54:05;13.68;;;2.72;;
64353;SDS011;50681;53.334;-6.536;2022-08-21T06:56:31;25.07;;;4.50;;
64353;SDS011;50681;53.334;-6.536;2022-08-21T06:58:58;33.03;;;3.38;;
64353;SDS011;50681;53.334;-6.536;2022-08-21T07:01:25;19.80;;;3.65;;
64353;SDS011;50681;53.334;-6.536;2022-08-21T07:03:51;24.42;;;3.10;;
64353;SDS011;50681;53.334;-6.536;2022-08-21T07:06:17;21.50;;;2.77;;
64353;SDS011;50681;53.334;-6.536;2022-08-21T07:08:42;18.40;;;3.47;;
64353;SDS011;50681;53.334;-6.536;2022-08-21T07:11:14;14.77;;;3.47;;
64353;SDS011;50681;53.334;-6.536;2022-08-21T07:13:45;18.83;;;3.50;;
64353;SDS011;50681;53.334;-6.536;2022-08-21T07:16:10;19.97;;;2.73;;
64353;SDS011;50681;53.334;-6.536;2022-08-21T07:18:36;19.23;;;3.25;;
64353;SDS011;50681;53.334;-6.536;2022-08-21T07:21:02;22.67;;;3.27;;
64353;SDS011;50681;53.334;-6.536;2022-08-21T07:26:22;19.55;;;3.08;;
64353;SDS011;50681;53.334;-6.536;2022-08-21T07:28:48;16.85;;;2.92;;
64353;SDS011;50681;53.334;-6.536;2022-08-21T07:31:16;19.92;;;2.90;;
64353;SDS011;50681;53.334;-6.536;2022-08-21T07:33:42;18.00;;;2.63;;
64353;SDS011;50681;53.334;-6.536;2022-08-21T07:36:08;13.25;;;2.60;;
64353;SDS011;50681;53.334;-6.536;2022-08-21T07:38:34;27.40;;;3.60;;
64353;SDS011;50681;53.334;-6.536;2022-08-21T07:41:00;16.87;;;2.97;;
64353;SDS011;50681;53.334;-6.536;2022-08-21T07:43:27;22.88;;;3.70;;
64353;SDS011;50681;53.334;-6.536;2022-08-21T07:45:53;22.52;;;3.13;;
64353;SDS011;50681;53.334;-6.536;2022-08-21T07:48:22;14.63;;;2.65;;
64353;SDS011;50681;53.334;-6.536;2022-08-21T07:50:48;18.77;;;2.67;;
64353;SDS011;50681;53.334;-6.536;2022-08-21T07:53:14;24.83;;;3.28;;
64353;SDS011;50681;53.334;-6.536;2022-08-21T07:55:40;22.30;;;3.50;;
64353;SDS011;50681;53.334;-6.536;2022-08-21T07:58:05;12.90;;;2.23;;
64353;SDS011;50681;53.334;-6.536;2022-08-21T08:00:31;14.35;;;3.65;;
64353;SDS011;50681;53.334;-6.536;2022-08-21T08:02:58;17.77;;;2.63;;
64353;SDS011;50681;53.334;-6.536;2022-08-21T08:05:25;21.98;;;2.45;;
64353;SDS011;50681;53.334;-6.536;2022-08-21T08:07:53;17.73;;;2.85;;
64353;SDS011;50681;53.334;-6.536;2022-08-21T08:10:19;25.35;;;2.70;;
64353;SDS011;50681;53.334;-6.536;2022-08-21T08:12:46;20.65;;;2.88;;
64353;SDS011;50681;53.334;-6.536;2022-08-21T08:15:13;15.85;;;2.72;;
64353;SDS011;50681;53.334;-6.536;2022-08-21T08:17:40;18.10;;;2.40;;
64353;SDS011;50681;53.334;-6.536;2022-08-21T08:20:06;12.37;;;2.73;;
64353;SDS011;50681;53.334;-6.536;2022-08-21T08:22:33;17.45;;;2.30;;
64353;SDS011;50681;53.334;-6.536;2022-08-21T08:25:00;21.30;;;2.70;;
64353;SDS011;50681;53.334;-6.536;2022-08-21T08:27:26;14.33;;;3.07;;
64353;SDS011;50681;53.334;-6.536;2022-08-21T08:29:51;15.97;;;2.10;;
64353;SDS011;50681;53.334;-6.536;2022-08-21T08:32:17;11.97;;;2.40;;
64353;SDS011;50681;53.334;-6.536;2022-08-21T08:34:43;11.70;;;1.85;;
64353;SDS011;50681;53.334;-6.536;2022-08-21T08:37:09;19.73;;;2.35;;
64353;SDS011;50681;53.334;-6.536;2022-08-21T08:39:35;13.43;;;1.75;;
64353;SDS011;50681;53.334;-6.536;2022-08-21T08:44:32;17.00;;;2.55;;
64353;SDS011;50681;53.334;-6.536;2022-08-21T08:46:59;11.77;;;2.03;;
64353;SDS011;50681;53.334;-6.536;2022-08-21T08:54:33;14.60;;;2.10;;
64353;SDS011;50681;53.334;-6.536;2022-08-21T08:57:05;12.20;;;2.83;;
64353;SDS011;50681;53.334;-6.536;2022-08-21T08:59:44;11.95;;;2.08;;
64353;SDS011;50681;53.334;-6.536;2022-08-21T09:02:14;14.25;;;2.10;;
64353;SDS011;50681;53.334;-6.536;2022-08-21T09:04:41;8.18;;;1.85;;
64353;SDS011;50681;53.334;-6.536;2022-08-21T09:10:10;8.73;;;1.83;;
64353;SDS011;50681;53.334;-6.536;2022-08-21T09:12:45;10.20;;;1.63;;
64353;SDS011;50681;53.334;-6.536;2022-08-21T09:21:20;17.75;;;2.25;;
64353;SDS011;50681;53.334;-6.536;2022-08-21T09:26:44;7.43;;;1.45;;
64353;SDS011;50681;53.334;-6.536;2022-08-21T09:29:20;9.43;;;1.80;;
64353;SDS011;50681;53.334;-6.536;2022-08-21T09:31:49;8.00;;;2.08;;
64353;SDS011;50681;53.334;-6.536;2022-08-21T09:34:23;19.20;;;6.53;;
64353;SDS011;50681;53.334;-6.536;2022-08-21T09:36:53;10.70;;;4.57;;
64353;SDS011;50681;53.334;-6.536;2022-08-21T09:39:27;36.67;;;15.80;;
64353;SDS011;50681;53.334;-6.536;2022-08-21T09:42:20;4.90;;;1.55;;
64353;SDS011;50681;53.334;-6.536;2022-08-21T09:45:32;6.00;;;1.50;;
64353;SDS011;50681;53.334;-6.536;2022-08-21T09:47:51;12.27;;;2.10;;
64353;SDS011;50681;53.334;-6.536;2022-08-21T09:50:17;8.30;;;1.23;;
64353;SDS011;50681;53.334;-6.536;2022-08-21T09:52:53;7.43;;;1.38;;
64353;SDS011;50681;53.334;-6.536;2022-08-21T09:55:26;7.88;;;1.65;;
64353;SDS011;50681;53.334;-6.536;2022-08-21T09:58:17;7.63;;;1.33;;
64353;SDS011;50681;53.334;-6.536;2022-08-21T10:00:43;24.90;;;2.17;;
64353;SDS011;50681;53.334;-6.536;2022-08-21T10:03:17;40.92;;;2.67;;
64353;SDS011;50681;53.334;-6.536;2022-08-21T10:05:52;10.45;;;1.77;;
64353;SDS011;50681;53.334;-6.536;2022-08-21T10:08:21;29.52;;;4.00;;
64353;SDS011;50681;53.334;-6.536;2022-08-21T10:10:56;26.02;;;5.72;;
64353;SDS011;50681;53.334;-6.536;2022-08-21T10:13:36;6.32;;;2.67;;
64353;SDS011;50681;53.334;-6.536;2022-08-21T10:16:07;6.20;;;1.60;;
64353;SDS011;50681;53.334;-6.536;2022-08-21T10:46:01;4.10;;;1.00;;
64353;SDS011;50681;53.334;-6.536;2022-08-21T10:48:53;9.15;;;1.50;;
64353;SDS011;50681;53.334;-6.536;2022-08-21T10:51:35;4.97;;;1.25;;
64353;SDS011;50681;53.334;-6.536;2022-08-21T10:56:47;13.15;;;1.35;;
64353;SDS011;50681;53.334;-6.536;2022-08-21T11:00:17;4.05;;;1.23;;
64353;SDS011;50681;53.334;-6.536;2022-08-21T11:02:21;8.15;;;1.20;;
64353;SDS011;50681;53.334;-6.536;2022-08-21T11:08:07;7.78;;;1.40;;
64353;SDS011;50681;53.334;-6.536;2022-08-21T11:10:31;10.13;;;2.20;;
64353;SDS011;50681;53.334;-6.536;2022-08-21T11:13:04;6.55;;;1.30;;
64353;SDS011;50681;53.334;-6.536;2022-08-21T11:18:21;5.50;;;1.35;;
64353;SDS011;50681;53.334;-6.536;2022-08-21T11:23:38;8.00;;;1.15;;
64353;SDS011;50681;53.334;-6.536;2022-08-21T11:26:11;8.00;;;1.25;;
64353;SDS011;50681;53.334;-6.536;2022-08-21T11:28:53;8.10;;;1.75;;
64353;SDS011;50681;53.334;-6.536;2022-08-21T11:40:13;5.97;;;1.75;;
64353;SDS011;50681;53.334;-6.536;2022-08-21T11:46:03;3.33;;;1.23;;
64353;SDS011;50681;53.334;-6.536;2022-08-21T11:51:41;7.70;;;1.50;;
64353;SDS011;50681;53.334;-6.536;2022-08-21T11:56:58;5.20;;;1.20;;
64353;SDS011;50681;53.334;-6.536;2022-08-21T11:59:32;8.15;;;2.08;;
64353;SDS011;50681;53.334;-6.536;2022-08-21T12:02:06;6.57;;;1.52;;
64353;SDS011;50681;53.334;-6.536;2022-08-21T12:04:42;7.25;;;1.08;;
64353;SDS011;50681;53.334;-6.536;2022-08-21T12:07:11;5.78;;;1.38;;
64353;SDS011;50681;53.334;-6.536;2022-08-21T12:09:39;7.07;;;1.40;;
64353;SDS011;50681;53.334;-6.536;2022-08-21T12:12:12;7.33;;;1.50;;
64353;SDS011;50681;53.334;-6.536;2022-08-21T12:14:48;12.95;;;1.98;;
64353;SDS011;50681;53.334;-6.536;2022-08-21T12:17:23;11.30;;;1.50;;
64353;SDS011;50681;53.334;-6.536;2022-08-21T12:20:00;6.13;;;1.40;;
64353;SDS011;50681;53.334;-6.536;2022-08-21T12:22:41;7.55;;;1.33;;
64353;SDS011;50681;53.334;-6.536;2022-08-21T12:25:16;8.93;;;1.42;;
64353;SDS011;50681;53.334;-6.536;2022-08-21T12:27:47;10.27;;;1.65;;
64353;SDS011;50681;53.334;-6.536;2022-08-21T12:30:23;5.90;;;1.15;;
64353;SDS011;50681;53.334;-6.536;2022-08-21T12:33:04;8.63;;;1.40;;
64353;SDS011;50681;53.334;-6.536;2022-08-21T12:35:43;8.32;;;1.52;;
64353;SDS011;50681;53.334;-6.536;2022-08-21T12:40:58;8.10;;;1.38;;
64353;SDS011;50681;53.334;-6.536;2022-08-21T12:43:34;5.30;;;1.25;;
64353;SDS011;50681;53.334;-6.536;2022-08-21T12:46:03;7.22;;;1.77;;
64353;SDS011;50681;53.334;-6.536;2022-08-21T12:48:39;5.03;;;1.20;;
64353;SDS011;50681;53.334;-6.536;2022-08-21T12:51:13;7.70;;;1.67;;
64353;SDS011;50681;53.334;-6.536;2022-08-21T12:56:11;7.77;;;1.47;;
64353;SDS011;50681;53.334;-6.536;2022-08-21T12:58:44;4.45;;;1.40;;
64353;SDS011;50681;53.334;-6.536;2022-08-21T13:03:54;8.45;;;1.30;;
64353;SDS011;50681;53.334;-6.536;2022-08-21T13:06:22;4.22;;;1.23;;
64353;SDS011;50681;53.334;-6.536;2022-08-21T13:08:52;6.78;;;1.65;;
64353;SDS011;50681;53.334;-6.536;2022-08-21T13:11:23;5.05;;;1.30;;
64353;SDS011;50681;53.334;-6.536;2022-08-21T13:16:20;8.70;;;1.42;;
64353;SDS011;50681;53.334;-6.536;2022-08-21T13:18:54;5.80;;;1.20;;
64353;SDS011;50681;53.334;-6.536;2022-08-21T13:21:32;12.73;;;1.95;;
64353;SDS011;50681;53.334;-6.536;2022-08-21T13:27:00;7.18;;;1.35;;
64353;SDS011;50681;53.334;-6.536;2022-08-21T13:29:31;5.03;;;1.00;;
64353;SDS011;50681;53.334;-6.536;2022-08-21T13:32:00;7.70;;;1.67;;
64353;SDS011;50681;53.334;-6.536;2022-08-21T13:34:33;5.95;;;1.23;;
64353;SDS011;50681;53.334;-6.536;2022-08-21T13:37:02;10.18;;;1.58;;
64353;SDS011;50681;53.334;-6.536;2022-08-21T13:39:30;8.15;;;1.92;;
64353;SDS011;50681;53.334;-6.536;2022-08-21T13:41:57;6.90;;;1.50;;
64353;SDS011;50681;53.334;-6.536;2022-08-21T13:44:35;7.32;;;1.50;;
64353;SDS011;50681;53.334;-6.536;2022-08-21T13:47:02;7.22;;;1.52;;
64353;SDS011;50681;53.334;-6.536;2022-08-21T13:49:34;4.47;;;1.52;;
64353;SDS011;50681;53.334;-6.536;2022-08-21T13:52:03;8.55;;;1.88;;
64353;SDS011;50681;53.334;-6.536;2022-08-21T13:54:42;7.07;;;1.45;;
64353;SDS011;50681;53.334;-6.536;2022-08-21T13:57:42;9.68;;;1.75;;
64353;SDS011;50681;53.334;-6.536;2022-08-21T14:00:20;6.22;;;1.52;;
64353;SDS011;50681;53.334;-6.536;2022-08-21T14:02:52;13.90;;;1.30;;
64353;SDS011;50681;53.334;-6.536;2022-08-21T14:05:29;8.98;;;1.60;;
64353;SDS011;50681;53.334;-6.536;2022-08-21T14:07:59;8.70;;;1.38;;
64353;SDS011;50681;53.334;-6.536;2022-08-21T14:10:27;7.57;;;1.50;;
64353;SDS011;50681;53.334;-6.536;2022-08-21T14:15:31;5.10;;;1.13;;
64353;SDS011;50681;53.334;-6.536;2022-08-21T14:18:13;9.30;;;2.05;;
64353;SDS011;50681;53.334;-6.536;2022-08-21T14:20:41;8.10;;;1.50;;
64353;SDS011;50681;53.334;-6.536;2022-08-21T14:23:07;9.07;;;1.92;;
64353;SDS011;50681;53.334;-6.536;2022-08-21T14:25:53;4.60;;;1.42;;
64353;SDS011;50681;53.334;-6.536;2022-08-21T14:28:24;6.38;;;1.25;;
64353;SDS011;50681;53.334;-6.536;2022-08-21T14:30:52;6.05;;;1.10;;
64353;SDS011;50681;53.334;-6.536;2022-08-21T14:33:25;7.70;;;1.40;;
64353;SDS011;50681;53.334;-6.536;2022-08-21T14:35:52;6.15;;;1.55;;
64353;SDS011;50681;53.334;-6.536;2022-08-21T14:40:47;6.72;;;2.00;;
64353;SDS011;50681;53.334;-6.536;2022-08-21T14:43:17;4.47;;;1.20;;
64353;SDS011;50681;53.334;-6.536;2022-08-21T14:45:44;8.05;;;1.42;;
64353;SDS011;50681;53.334;-6.536;2022-08-21T14:48:10;10.00;;;1.85;;
64353;SDS011;50681;53.334;-6.536;2022-08-21T14:50:36;6.67;;;1.90;;
64353;SDS011;50681;53.334;-6.536;2022-08-21T14:53:01;5.13;;;1.50;;
64353;SDS011;50681;53.334;-6.536;2022-08-21T14:55:28;4.97;;;1.38;;
64353;SDS011;50681;53.334;-6.536;2022-08-21T15:00:22;6.22;;;1.48;;
64353;SDS011;50681;53.334;-6.536;2022-08-21T15:02:50;8.95;;;1.60;;
64353;SDS011;50681;53.334;-6.536;2022-08-21T15:05:21;6.38;;;1.40;;
64353;SDS011;50681;53.334;-6.536;2022-08-21T15:07:46;5.72;;;1.40;;
64353;SDS011;50681;53.334;-6.536;2022-08-21T15:10:12;5.95;;;1.38;;
64353;SDS011;50681;53.334;-6.536;2022-08-21T15:12:38;8.02;;;1.50;;
64353;SDS011;50681;53.334;-6.536;2022-08-21T15:17:30;4.78;;;1.20;;
64353;SDS011;50681;53.334;-6.536;2022-08-21T15:19:56;5.80;;;1.63;;
64353;SDS011;50681;53.334;-6.536;2022-08-21T15:22:21;13.77;;;1.40;;
64353;SDS011;50681;53.334;-6.536;2022-08-21T15:24:47;6.37;;;1.40;;
64353;SDS011;50681;53.334;-6.536;2022-08-21T15:27:12;6.90;;;1.20;;
64353;SDS011;50681;53.334;-6.536;2022-08-21T15:29:41;4.15;;;1.17;;
64353;SDS011;50681;53.334;-6.536;2022-08-21T15:32:18;9.20;;;1.58;;
64353;SDS011;50681;53.334;-6.536;2022-08-21T15:34:46;10.30;;;1.35;;
64353;SDS011;50681;53.334;-6.536;2022-08-21T15:37:11;5.35;;;1.25;;
64353;SDS011;50681;53.334;-6.536;2022-08-21T15:39:36;6.85;;;1.45;;
64353;SDS011;50681;53.334;-6.536;2022-08-21T15:42:02;6.43;;;1.43;;
64353;SDS011;50681;53.334;-6.536;2022-08-21T15:44:28;5.07;;;1.23;;
64353;SDS011;50681;53.334;-6.536;2022-08-21T15:49:20;6.40;;;1.50;;
64353;SDS011;50681;53.334;-6.536;2022-08-21T15:51:46;3.67;;;1.35;;
64353;SDS011;50681;53.334;-6.536;2022-08-21T15:54:12;8.13;;;1.83;;
64353;SDS011;50681;53.334;-6.536;2022-08-21T15:56:39;10.13;;;1.90;;
64353;SDS011;50681;53.334;-6.536;2022-08-21T15:59:08;8.32;;;1.60;;
64353;SDS011;50681;53.334;-6.536;2022-08-21T16:01:38;7.35;;;2.22;;
64353;SDS011;50681;53.334;-6.536;2022-08-21T16:04:04;8.32;;;1.60;;
64353;SDS011;50681;53.334;-6.536;2022-08-21T16:06:31;5.53;;;1.30;;
64353;SDS011;50681;53.334;-6.536;2022-08-21T16:08:57;6.18;;;1.92;;
64353;SDS011;50681;53.334;-6.536;2022-08-21T16:13:49;6.97;;;1.50;;
64353;SDS011;50681;53.334;-6.536;2022-08-21T16:16:19;11.60;;;1.67;;
64353;SDS011;50681;53.334;-6.536;2022-08-21T16:18:47;8.20;;;1.75;;
64353;SDS011;50681;53.334;-6.536;2022-08-21T16:21:17;6.28;;;1.40;;
64353;SDS011;50681;53.334;-6.536;2022-08-21T16:23:44;4.10;;;1.35;;
64353;SDS011;50681;53.334;-6.536;2022-08-21T16:26:11;7.38;;;1.42;;
64353;SDS011;50681;53.334;-6.536;2022-08-21T16:28:38;7.22;;;1.40;;
64353;SDS011;50681;53.334;-6.536;2022-08-21T16:31:07;6.07;;;1.60;;